Time;durP1;ratioP1;P1;durP2;ratioP2;P2;SDS_P1;SDS_P2;PMS_P1;PMS_P2;Temp;Humidity;BMP_temperature;BMP_pressure;BME280_temperature;BME280_humidity;BME280_pressure;Samples;Min_cycle;Max_cycle;Signal;HPM_P1;HPM_P2
2022/10/06 00:01:25;;;;;;;15.13;10.00;;;12.00;99.90;;;;;;5073233;28;20029;-54
2022/10/06 00:03:51;;;;;;;12.77;9.07;;;12.00;99.90;;;;;;5073598;28;20128;-56
2022/10/06 00:06:18;;;;;;;13.02;9.38;;;11.90;99.90;;;;;;5074768;28;20115;-55
2022/10/06 00:08:45;;;;;;;15.10;10.00;;;12.00;99.90;;;;;;5072716;28;20494;-54
2022/10/06 00:11:12;;;;;;;14.90;9.70;;;12.10;99.90;;;;;;5073555;28;20028;-54
2022/10/06 00:13:38;;;;;;;13.43;10.13;;;11.80;99.90;;;;;;5072998;28;20028;-53
2022/10/06 00:16:13;;;;;;;12.73;8.93;;;11.50;99.90;;;;;;5074001;28;20098;-54
2022/10/06 00:18:39;;;;;;;15.57;10.15;;;11.30;99.90;;;;;;5073446;28;20035;-54
2022/10/06 00:21:05;;;;;;;11.95;8.88;;;;;;;;;;5072266;28;20396;-55
2022/10/06 00:23:31;;;;;;;9.18;7.65;;;11.00;99.90;;;;;;5073311;28;20043;-55
2022/10/06 00:25:57;;;;;;;13.20;9.07;;;10.90;99.90;;;;;;5073649;28;20029;-53
2022/10/06 00:28:23;;;;;;;12.90;9.57;;;11.10;99.90;;;;;;5073424;28;20036;-53
2022/10/06 00:30:52;;;;;;;13.77;8.80;;;11.10;99.90;;;;;;5072708;28;20035;-55
2022/10/06 00:33:18;;;;;;;11.60;8.65;;;10.90;99.90;;;;;;5070151;28;20025;-55
2022/10/06 00:35:44;;;;;;;12.98;8.98;;;10.80;99.90;;;;;;5073354;28;20413;-55
2022/10/06 00:38:12;;;;;;;13.02;8.48;;;10.80;99.90;;;;;;5073316;28;20091;-56
2022/10/06 00:40:46;;;;;;;12.65;9.70;;;10.90;99.90;;;;;;5049922;28;20041;-55
2022/10/06 00:43:40;;;;;;;12.90;8.80;;;11.10;99.90;;;;;;5037869;28;20053;-54
2022/10/06 00:46:08;;;;;;;11.55;8.55;;;10.90;99.90;;;;;;5073216;28;20104;-55
2022/10/06 00:48:34;;;;;;;14.38;8.70;;;10.70;99.90;;;;;;5072235;28;20461;-55
2022/10/06 00:51:00;;;;;;;12.35;9.68;;;10.50;99.90;;;;;;5073668;28;20032;-56
2022/10/06 00:53:29;;;;;;;11.57;8.68;;;10.40;99.90;;;;;;5072652;28;20482;-56
2022/10/06 00:55:56;;;;;;;12.25;9.57;;;10.40;99.90;;;;;;5069023;28;20081;-56
2022/10/06 00:58:22;;;;;;;11.63;8.18;;;10.70;99.90;;;;;;5073264;28;20038;-55
2022/10/06 01:00:53;;;;;;;13.02;8.95;;;11.00;99.90;;;;;;5070189;28;20024;-56
2022/10/06 01:03:26;;;;;;;12.75;8.85;;;11.30;99.90;;;;;;5072101;28;20530;-54
2022/10/06 01:05:55;;;;;;;10.95;8.82;;;11.60;99.90;;;;;;5072757;28;20468;-55
2022/10/06 01:08:21;;;;;;;12.95;9.10;;;11.70;99.90;;;;;;5071062;28;20044;-54
2022/10/06 01:10:47;;;;;;;10.48;8.50;;;11.70;99.90;;;;;;5072249;28;20029;-56
2022/10/06 01:13:14;;;;;;;11.65;8.60;;;11.80;99.90;;;;;;5073415;28;20077;-55
2022/10/06 01:15:49;;;;;;;10.38;7.78;;;11.90;99.90;;;;;;5071875;28;20039;-56
2022/10/06 01:18:17;;;;;;;13.38;8.77;;;12.00;99.90;;;;;;5067798;28;20036;-56
2022/10/06 01:21:04;;;;;;;14.20;7.72;;;12.00;99.90;;;;;;5071624;28;20028;-54
2022/10/06 01:23:31;;;;;;;12.30;8.02;;;12.00;99.90;;;;;;5052965;28;20048;-54
2022/10/06 01:25:58;;;;;;;12.23;8.07;;;12.20;99.90;;;;;;5072173;28;20079;-55
2022/10/06 01:28:24;;;;;;;12.88;8.10;;;12.20;99.90;;;;;;5072685;28;20028;-54
2022/10/06 01:30:53;;;;;;;13.02;8.80;;;12.20;99.90;;;;;;5052960;28;20117;-55
2022/10/06 01:33:19;;;;;;;11.88;8.07;;;12.30;99.90;;;;;;5048845;28;20040;-54
2022/10/06 01:35:48;;;;;;;11.52;8.15;;;12.20;99.90;;;;;;5072232;28;20029;-55
2022/10/06 01:38:15;;;;;;;10.77;8.13;;;12.20;99.90;;;;;;5072317;28;20047;-56
2022/10/06 01:40:41;;;;;;;13.25;9.55;;;12.20;99.90;;;;;;5071034;28;20068;-54
2022/10/06 01:43:07;;;;;;;39.22;33.10;;;12.20;99.90;;;;;;5072030;28;20056;-54
2022/10/06 01:45:33;;;;;;;21.05;18.23;;;12.20;99.90;;;;;;5071576;28;20119;-55
2022/10/06 01:47:59;;;;;;;19.27;12.68;;;12.30;99.90;;;;;;5053644;28;20028;-55
2022/10/06 01:50:24;;;;;;;16.13;12.50;;;12.30;99.90;;;;;;5049429;28;20045;-57
2022/10/06 01:52:50;;;;;;;15.55;11.15;;;12.30;99.90;;;;;;5072081;28;20043;-55
2022/10/06 01:55:16;;;;;;;16.88;12.07;;;12.30;99.90;;;;;;5052028;28;20040;-55
2022/10/06 01:57:42;;;;;;;17.20;11.02;;;12.30;99.90;;;;;;5070365;28;20036;-55
2022/10/06 02:00:10;;;;;;;19.73;12.05;;;12.30;99.90;;;;;;5036297;28;20036;-54
2022/10/06 02:02:36;;;;;;;14.18;12.60;;;12.20;99.90;;;;;;5072809;28;20044;-55
2022/10/06 02:05:02;;;;;;;20.65;12.07;;;12.30;99.90;;;;;;5070907;28;20094;-54
2022/10/06 02:07:28;;;;;;;16.63;10.95;;;12.30;99.90;;;;;;5071512;28;20020;-54
2022/10/06 02:09:54;;;;;;;12.95;10.20;;;12.30;99.90;;;;;;5070999;28;20119;-56
2022/10/06 02:12:19;;;;;;;14.30;10.13;;;12.30;99.90;;;;;;5071900;28;20036;-56
2022/10/06 02:14:45;;;;;;;11.05;9.43;;;12.30;99.90;;;;;;5071600;28;20025;-54
2022/10/06 02:17:11;;;;;;;11.57;8.85;;;12.20;99.90;;;;;;5072254;28;20066;-55
2022/10/06 02:19:37;;;;;;;12.63;9.43;;;12.00;99.90;;;;;;5072464;28;20034;-56
2022/10/06 02:22:03;;;;;;;10.68;7.90;;;11.60;99.90;;;;;;5071736;28;20391;-54
2022/10/06 02:24:29;;;;;;;11.93;8.02;;;11.30;99.90;;;;;;5071549;28;20145;-56
2022/10/06 02:26:55;;;;;;;11.32;8.35;;;11.10;99.90;;;;;;5071731;28;20071;-55
2022/10/06 02:29:21;;;;;;;10.75;7.55;;;11.00;99.90;;;;;;5036247;28;20041;-55
2022/10/06 02:31:48;;;;;;;10.95;9.13;;;11.20;99.90;;;;;;5051861;28;20407;-56
2022/10/06 02:34:14;;;;;;;13.02;9.15;;;11.30;99.90;;;;;;5071997;28;20016;-55
2022/10/06 02:36:40;;;;;;;11.57;8.77;;;11.40;99.90;;;;;;5071041;28;20104;-55
2022/10/06 02:39:05;;;;;;;14.27;9.40;;;11.60;99.90;;;;;;5071251;28;20115;-55
2022/10/06 02:41:31;;;;;;;11.43;7.68;;;11.70;99.90;;;;;;5072138;28;20033;-54
2022/10/06 02:43:57;;;;;;;9.88;8.32;;;11.80;99.90;;;;;;5069627;28;20135;-55
2022/10/06 02:46:24;;;;;;;11.05;8.00;;;11.80;99.90;;;;;;5071578;28;20029;-55
2022/10/06 02:48:50;;;;;;;13.38;8.00;;;11.80;99.90;;;;;;5071428;28;20043;-54
2022/10/06 02:51:17;;;;;;;17.35;8.77;;;11.60;99.90;;;;;;5065812;28;20381;-56
2022/10/06 02:53:45;;;;;;;9.82;8.30;;;11.20;99.90;;;;;;5071114;28;20024;-54
2022/10/06 02:56:15;;;;;;;11.10;8.05;;;10.70;99.90;;;;;;5071745;28;20126;-53
2022/10/06 02:58:42;;;;;;;10.77;8.75;;;10.40;99.90;;;;;;5075159;28;20032;-55
2022/10/06 03:01:10;;;;;;;11.10;8.35;;;10.20;99.90;;;;;;5075272;28;20062;-55
2022/10/06 03:03:36;;;;;;;11.18;7.78;;;10.10;99.90;;;;;;5074401;28;20040;-55
2022/10/06 03:06:20;;;;;;;12.68;8.85;;;10.20;99.90;;;;;;5073775;28;20029;-54
2022/10/06 03:08:51;;;;;;;14.63;9.27;;;10.10;99.90;;;;;;5074533;28;20044;-54
2022/10/06 03:11:21;;;;;;;14.32;9.00;;;10.10;99.90;;;;;;5051651;28;20131;-54
2022/10/06 03:13:48;;;;;;;13.23;9.20;;;10.00;99.90;;;;;;5074116;28;20089;-53
2022/10/06 03:16:15;;;;;;;15.07;10.48;;;10.00;99.90;;;;;;5074872;28;20032;-53
2022/10/06 03:18:43;;;;;;;15.88;9.52;;;9.90;99.90;;;;;;5075127;28;20021;-53
2022/10/06 03:21:10;;;;;;;14.32;10.10;;;9.80;99.90;;;;;;5055379;28;20442;-54
2022/10/06 03:23:35;;;;;;;17.88;11.25;;;9.90;99.90;;;;;;5074348;28;20415;-55
2022/10/06 03:26:01;;;;;;;17.50;11.27;;;10.00;99.90;;;;;;5075516;28;20028;-53
2022/10/06 03:28:27;;;;;;;18.77;10.20;;;10.10;99.90;;;;;;5054951;28;20044;-53
2022/10/06 03:30:53;;;;;;;17.77;10.20;;;10.50;99.90;;;;;;5074322;28;20127;-56
2022/10/06 03:33:19;;;;;;;10.73;8.77;;;10.80;99.90;;;;;;5073684;28;20032;-53
2022/10/06 03:35:45;;;;;;;13.70;8.88;;;11.00;99.90;;;;;;5074326;28;20032;-53
2022/10/06 03:38:10;;;;;;;18.08;9.15;;;11.20;99.90;;;;;;5039479;28;20123;-54
2022/10/06 03:40:36;;;;;;;10.63;8.38;;;11.30;99.90;;;;;;5073645;28;20506;-54
2022/10/06 03:43:02;;;;;;;12.25;8.48;;;11.40;99.90;;;;;;5074574;28;20041;-55
2022/10/06 03:45:27;;;;;;;13.70;9.25;;;11.40;99.90;;;;;;5073537;28;20036;-54
2022/10/06 03:47:54;;;;;;;12.32;9.02;;;11.50;99.90;;;;;;5072750;28;20036;-53
2022/10/06 03:50:20;;;;;;;12.98;8.68;;;11.50;99.90;;;;;;5074670;28;20027;-54
2022/10/06 03:52:50;;;;;;;16.27;10.68;;;11.40;99.90;;;;;;5073833;28;20028;-54
2022/10/06 03:55:15;;;;;;;10.88;7.78;;;11.10;99.90;;;;;;5073776;28;20028;-53
2022/10/06 03:57:41;;;;;;;12.07;8.45;;;10.50;99.90;;;;;;5073890;28;20107;-55
2022/10/06 04:00:08;;;;;;;11.73;8.43;;;10.60;99.90;;;;;;5074165;28;20468;-53
2022/10/06 04:02:33;;;;;;;9.80;8.07;;;10.50;99.90;;;;;;5054184;28;20437;-53
2022/10/06 04:04:59;;;;;;;10.25;7.72;;;10.40;99.90;;;;;;5074357;28;20115;-54
2022/10/06 04:07:25;;;;;;;11.30;7.32;;;10.40;99.90;;;;;;5072275;28;20059;-54
2022/10/06 04:09:51;;;;;;;11.88;7.60;;;10.60;99.90;;;;;;5073926;28;20078;-54
2022/10/06 04:12:16;;;;;;;10.77;7.30;;;10.40;99.90;;;;;;5074204;28;20029;-54
2022/10/06 04:14:42;;;;;;;13.60;8.18;;;10.30;99.90;;;;;;5073525;28;20024;-54
2022/10/06 04:17:08;;;;;;;8.27;6.82;;;10.20;99.90;;;;;;5074163;28;20035;-54
2022/10/06 04:19:34;;;;;;;12.55;7.97;;;10.20;99.90;;;;;;5073625;28;20380;-55
2022/10/06 04:21:59;;;;;;;11.18;8.05;;;10.10;99.90;;;;;;5073817;28;20017;-54
2022/10/06 04:24:25;;;;;;;13.07;9.02;;;10.00;99.90;;;;;;5073938;28;20122;-53
2022/10/06 04:26:51;;;;;;;12.27;8.30;;;10.10;99.90;;;;;;5073408;28;20028;-54
2022/10/06 04:29:16;;;;;;;10.27;7.97;;;10.30;99.90;;;;;;5073646;28;20035;-53
2022/10/06 04:31:42;;;;;;;11.38;8.57;;;10.20;99.90;;;;;;5072249;28;20368;-55
2022/10/06 04:34:12;;;;;;;11.75;8.60;;;10.10;99.90;;;;;;5073635;28;20099;-53
2022/10/06 04:36:39;;;;;;;13.15;8.60;;;10.20;99.90;;;;;;5073086;28;20048;-54
2022/10/06 04:39:11;;;;;;;11.25;8.13;;;10.30;99.90;;;;;;5073470;28;20123;-54
2022/10/06 04:41:39;;;;;;;10.00;8.15;;;10.40;99.90;;;;;;5049444;28;20043;-53
2022/10/06 04:44:06;;;;;;;11.65;7.55;;;10.40;99.90;;;;;;5072752;28;20404;-54
2022/10/06 04:46:33;;;;;;;11.98;7.45;;;10.10;99.90;;;;;;5072103;28;20368;-55
2022/10/06 04:48:59;;;;;;;12.20;7.93;;;9.90;99.90;;;;;;5070094;28;20189;-54
2022/10/06 04:51:26;;;;;;;11.07;7.63;;;10.10;99.90;;;;;;5073062;28;20509;-54
2022/10/06 04:53:52;;;;;;;12.13;8.60;;;10.10;99.90;;;;;;5072724;28;20028;-55
2022/10/06 04:56:23;;;;;;;21.30;13.20;;;9.70;99.90;;;;;;5072738;28;20536;-55
2022/10/06 04:58:51;;;;;;;16.40;11.30;;;9.50;99.90;;;;;;5072492;28;20040;-54
2022/10/06 05:01:37;;;;;;;13.52;9.48;;;9.50;99.90;;;;;;5073338;28;20548;-54
2022/10/06 05:04:04;;;;;;;12.13;8.43;;;10.00;99.90;;;;;;5072471;28;20072;-54
2022/10/06 05:06:36;;;;;;;12.13;8.25;;;10.20;99.90;;;;;;5071253;28;20033;-55
2022/10/06 05:09:05;;;;;;;11.48;9.45;;;10.20;99.90;;;;;;5069612;28;20028;-53
2022/10/06 05:11:31;;;;;;;11.13;8.02;;;10.50;99.90;;;;;;5072548;28;20036;-53
2022/10/06 05:13:57;;;;;;;15.23;8.55;;;10.70;99.90;;;;;;5072157;28;20067;-53
2022/10/06 05:16:26;;;;;;;12.18;8.15;;;10.80;99.90;;;;;;5072905;28;20495;-54
2022/10/06 05:18:52;;;;;;;14.63;7.95;;;11.00;99.90;;;;;;5072275;28;20035;-54
2022/10/06 05:21:20;;;;;;;9.65;7.95;;;11.20;99.90;;;;;;5070075;28;20038;-56
2022/10/06 05:23:47;;;;;;;17.48;7.68;;;11.20;99.90;;;;;;5071629;28;20650;-54
2022/10/06 05:26:15;;;;;;;14.68;9.07;;;11.40;99.90;;;;;;5073495;28;20036;-54
2022/10/06 05:28:41;;;;;;;19.65;9.77;;;11.50;99.90;;;;;;5036694;28;20040;-53
2022/10/06 05:31:10;;;;;;;16.17;9.93;;;11.60;99.90;;;;;;5052848;28;20051;-53
2022/10/06 05:33:36;;;;;;;10.27;8.65;;;11.60;99.90;;;;;;5071697;28;20024;-54
2022/10/06 05:36:09;;;;;;;18.48;9.98;;;11.80;99.90;;;;;;5072309;28;20552;-53
2022/10/06 05:38:35;;;;;;;19.48;9.85;;;11.90;99.90;;;;;;5072334;28;20078;-56
2022/10/06 05:41:09;;;;;;;13.93;8.63;;;12.00;99.90;;;;;;5072305;28;20096;-53
2022/10/06 05:43:35;;;;;;;13.10;8.80;;;12.20;99.90;;;;;;5071540;28;20102;-53
2022/10/06 05:46:03;;;;;;;14.98;9.00;;;12.30;99.90;;;;;;5072391;28;20024;-53
2022/10/06 05:48:30;;;;;;;15.10;8.60;;;;;;;;;;5071410;28;20032;-52
2022/10/06 05:51:01;;;;;;;12.48;7.63;;;12.60;99.90;;;;;;5073010;28;20112;-54
2022/10/06 05:53:30;;;;;;;13.38;8.35;;;12.70;99.90;;;;;;5068663;28;21067;-54
2022/10/06 05:56:23;;;;;;;20.58;7.78;;;12.90;99.90;;;;;;5070861;28;20033;-55
2022/10/06 05:58:51;;;;;;;11.98;8.75;;;13.10;99.90;;;;;;5066454;28;20062;-54
2022/10/06 06:01:21;;;;;;;12.65;7.60;;;13.30;99.90;;;;;;5071884;28;20031;-53
2022/10/06 06:03:49;;;;;;;20.08;10.50;;;13.50;99.90;;;;;;5071770;28;20044;-53
2022/10/06 06:06:39;;;;;;;18.08;10.85;;;13.80;99.90;;;;;;5072382;28;20107;-53
2022/10/06 06:09:09;;;;;;;16.08;9.85;;;;;;;;;;5066967;28;20031;-53
2022/10/06 06:11:37;;;;;;;12.18;8.95;;;14.80;99.90;;;;;;5071442;28;20042;-54
2022/10/06 06:14:05;;;;;;;14.00;7.80;;;;;;;;;;5071818;28;20028;-54
2022/10/06 06:16:31;;;;;;;10.13;6.93;;;15.10;99.90;;;;;;5069097;28;20020;-52
2022/10/06 06:18:58;;;;;;;12.05;7.35;;;15.30;99.90;;;;;;5071607;28;20033;-53
2022/10/06 06:21:25;;;;;;;11.38;8.20;;;;;;;;;;5070660;28;20024;-53
2022/10/06 06:23:51;;;;;;;10.55;7.22;;;16.20;99.90;;;;;;5071446;28;20127;-54
2022/10/06 06:26:23;;;;;;;12.57;8.25;;;16.70;99.90;;;;;;5036922;28;20040;-55
2022/10/06 06:28:49;;;;;;;11.75;8.52;;;;;;;;;;5071330;28;20036;-52
2022/10/06 06:31:19;;;;;;;12.40;9.93;;;17.70;99.90;;;;;;5073286;28;20067;-52
2022/10/06 06:33:46;;;;;;;17.00;10.40;;;18.20;99.90;;;;;;5075025;28;20032;-53
2022/10/06 06:36:16;;;;;;;14.95;10.10;;;18.80;99.90;;;;;;5069977;28;20052;-53
2022/10/06 06:38:45;;;;;;;16.00;10.77;;;19.20;99.90;;;;;;5072098;28;20025;-53
2022/10/06 06:41:15;;;;;;;16.65;12.60;;;;;;;;;;5050911;28;20037;-53
2022/10/06 06:43:41;;;;;;;21.33;10.55;;;20.30;99.90;;;;;;5073534;28;20044;-54
2022/10/06 06:46:07;;;;;;;15.73;9.15;;;20.70;99.90;;;;;;5076107;28;20367;-54
2022/10/06 06:48:36;;;;;;;14.70;8.88;;;;;;;;;;5075137;28;20024;-53
2022/10/06 06:51:03;;;;;;;15.43;11.05;;;21.50;99.90;;;;;;5075459;28;20033;-53
2022/10/06 06:53:30;;;;;;;17.00;10.40;;;;;;;;;;5074920;28;20024;-54
2022/10/06 06:55:56;;;;;;;13.75;11.95;;;21.80;99.90;;;;;;5075431;28;20392;-54
2022/10/06 06:58:22;;;;;;;17.42;10.50;;;22.60;99.90;;;;;;5075159;28;20036;-53
2022/10/06 07:00:49;;;;;;;13.98;10.77;;;;;;;;;;5074323;28;20537;-54
2022/10/06 07:03:16;;;;;;;17.15;12.10;;;;;;;;;;5074805;28;20119;-53
2022/10/06 07:05:44;;;;;;;13.50;9.35;;;24.90;99.90;;;;;;5075111;28;20036;-54
2022/10/06 07:08:10;;;;;;;14.32;10.65;;;;;;;;;;5072394;28;20118;-53
2022/10/06 07:10:37;;;;;;;14.85;10.48;;;;;;;;;;5052657;28;20090;-53
2022/10/06 07:13:05;;;;;;;14.85;10.05;;;;;;;;;;5074262;28;20021;-53
2022/10/06 07:26:31;;;;;;;17.23;10.32;;;26.80;97.60;;;;;;5073943;28;20052;-53
2022/10/06 07:28:59;;;;;;;12.85;9.82;;;;;;;;;;5074676;28;20464;-52
2022/10/06 07:31:32;;;;;;;17.33;10.40;;;26.90;96.10;;;;;;5055467;28;20036;-55
2022/10/06 07:34:02;;;;;;;15.20;10.07;;;27.10;96.20;;;;;;5070317;28;20053;-53
2022/10/06 07:36:29;;;;;;;17.67;10.27;;;27.10;95.80;;;;;;5069742;28;20177;-53
2022/10/06 07:38:55;;;;;;;22.63;11.57;;;27.30;95.10;;;;;;5067024;28;20484;-52
2022/10/06 07:41:21;;;;;;;14.65;11.20;;;27.20;95.00;;;;;;5068865;28;20057;-53
2022/10/06 07:43:47;;;;;;;16.63;11.85;;;27.20;94.60;;;;;;5071507;28;20056;-55
2022/10/06 07:46:13;;;;;;;16.27;10.95;;;27.20;94.30;;;;;;5073180;28;20052;-55
2022/10/06 07:48:39;;;;;;;15.68;11.23;;;27.10;94.10;;;;;;5065332;28;20025;-53
2022/10/06 07:51:16;;;;;;;15.93;11.23;;;27.50;94.10;;;;;;5074158;28;20036;-53
2022/10/06 07:53:49;;;;;;;15.95;11.65;;;27.40;93.70;;;;;;5043823;28;20048;-54
2022/10/06 07:56:19;;;;;;;14.38;9.63;;;27.50;93.70;;;;;;5035398;28;20041;-54
2022/10/06 07:58:46;;;;;;;14.90;10.50;;;27.40;93.60;;;;;;5037634;28;20199;-52
2022/10/06 08:01:13;;;;;;;16.40;11.20;;;27.60;94.80;;;;;;5043830;28;20091;-52
2022/10/06 08:03:40;;;;;;;12.93;10.38;;;27.30;93.40;;;;;;5039830;28;20049;-53
2022/10/06 08:06:11;;;;;;;12.95;10.13;;;27.50;93.10;;;;;;5012988;28;20402;-54
2022/10/06 08:08:37;;;;;;;17.95;10.95;;;27.60;93.30;;;;;;5020674;28;20088;-53
2022/10/06 08:11:04;;;;;;;11.98;9.13;;;;;;;;;;5029395;28;20036;-53
2022/10/06 08:13:33;;;;;;;13.90;8.77;;;;;;;;;;4991285;28;20046;-52
2022/10/06 08:16:06;;;;;;;11.75;7.10;;;;;;;;;;4992326;28;20124;-53
2022/10/06 08:18:33;;;;;;;10.38;7.97;;;29.40;93.50;;;;;;4989663;28;20046;-54
2022/10/06 08:20:59;;;;;;;14.80;9.18;;;29.30;91.50;;;;;;4992107;28;20030;-54
2022/10/06 08:23:25;;;;;;;12.63;9.13;;;29.10;91.60;;;;;;4992644;28;20116;-53
2022/10/06 08:25:53;;;;;;;12.07;8.48;;;28.90;93.20;;;;;;5005650;28;20532;-53
2022/10/06 08:28:20;;;;;;;11.85;8.73;;;28.90;95.50;;;;;;5026899;28;20040;-55
2022/10/06 08:30:50;;;;;;;10.35;7.95;;;;;;;;;;5026744;28;20061;-55
2022/10/06 08:33:16;;;;;;;9.27;8.10;;;;;;;;;;5024356;28;20694;-54
2022/10/06 08:35:42;;;;;;;9.77;7.25;;;;;;;;;;4970276;28;20719;-54
2022/10/06 08:38:08;;;;;;;8.93;6.80;;;29.50;98.60;;;;;;4971812;28;20043;-53
2022/10/06 08:40:34;;;;;;;9.85;7.47;;;;;;;;;;4972373;28;20054;-52
2022/10/06 08:43:01;;;;;;;10.63;8.25;;;;;;;;;;4972273;28;20135;-54
2022/10/06 08:45:34;;;;;;;9.63;6.75;;;30.10;90.30;;;;;;4976783;28;20058;-54
2022/10/06 08:48:35;;;;;;;16.02;10.23;;;30.20;90.20;;;;;;4990373;28;20036;-53
2022/10/06 08:51:14;;;;;;;18.48;11.50;;;;;;;;;;5009392;28;20041;-54
2022/10/06 08:53:50;;;;;;;10.00;8.07;;;;;;;;;;5030142;28;20038;-54
2022/10/06 08:56:48;;;;;;;11.80;7.55;;;30.40;98.20;;;;;;5030621;28;20041;-54
2022/10/06 08:59:15;;;;;;;10.27;7.35;;;;;;;;;;4980158;28;20054;-55
2022/10/06 09:01:44;;;;;;;8.60;7.35;;;;;;;;;;4973578;28;20038;-54
2022/10/06 09:04:27;;;;;;;7.72;6.65;;;31.00;92.70;;;;;;4981309;28;20127;-55
2022/10/06 09:07:14;;;;;;;11.15;7.25;;;30.70;88.60;;;;;;5014775;28;20045;-54
2022/10/06 09:10:04;;;;;;;9.30;6.25;;;29.90;87.40;;;;;;5037213;28;20134;-54
2022/10/06 09:12:41;;;;;;;11.23;7.13;;;29.80;87.80;;;;;;5031638;28;20026;-54
2022/10/06 09:15:25;;;;;;;9.48;7.15;;;29.80;88.60;;;;;;5036228;28;20045;-54
2022/10/06 09:18:00;;;;;;;11.93;6.65;;;29.70;89.10;;;;;;5041193;28;20033;-54
2022/10/06 09:20:35;;;;;;;16.25;6.90;;;29.70;89.00;;;;;;5017304;28;20064;-56
2022/10/06 09:23:05;;;;;;;10.32;6.88;;;29.80;88.70;;;;;;5036030;28;20041;-54
2022/10/06 09:25:32;;;;;;;9.48;6.82;;;29.70;87.90;;;;;;5040688;28;20071;-55
2022/10/06 09:28:00;;;;;;;10.80;6.47;;;29.90;89.20;;;;;;5041111;28;20576;-54
2022/10/06 09:30:26;;;;;;;8.48;6.07;;;30.10;87.80;;;;;;4993197;28;20077;-54
2022/10/06 09:33:01;;;;;;;7.68;5.45;;;30.10;87.20;;;;;;4992059;28;20038;-55
2022/10/06 09:35:30;;;;;;;8.82;5.57;;;30.20;87.40;;;;;;5013334;28;20045;-55
2022/10/06 09:38:03;;;;;;;9.75;5.45;;;30.00;86.70;;;;;;5046177;28;20064;-56
2022/10/06 09:40:52;;;;;;;8.98;5.38;;;29.80;86.20;;;;;;5049826;28;20051;-54
2022/10/06 09:43:26;;;;;;;9.70;5.90;;;;;;;;;;5049170;28;20045;-55
2022/10/06 09:45:53;;;;;;;9.57;6.28;;;29.80;87.50;;;;;;5049950;28;20041;-55
2022/10/06 09:48:26;;;;;;;9.02;5.97;;;29.80;88.10;;;;;;5049722;28;20440;-56
2022/10/06 09:51:10;;;;;;;8.10;6.15;;;29.80;87.40;;;;;;5050007;28;20036;-55
2022/10/06 09:53:40;;;;;;;7.72;5.60;;;;;;;;;;5048088;28;20120;-56
2022/10/06 09:56:17;;;;;;;7.28;6.00;;;29.90;87.70;;;;;;5050033;28;20191;-56
2022/10/06 09:58:55;;;;;;;8.85;6.30;;;30.10;88.40;;;;;;5048283;28;20091;-55
2022/10/06 10:01:25;;;;;;;8.85;6.43;;;;;;;;;;5053683;28;20106;-55
2022/10/06 10:03:56;;;;;;;9.23;6.20;;;30.70;89.60;;;;;;5067090;28;20060;-55
2022/10/06 10:06:26;;;;;;;10.10;5.82;;;30.70;87.80;;;;;;5068302;28;20044;-58
2022/10/06 10:09:27;;;;;;;9.95;7.40;;;30.80;85.30;;;;;;5068933;28;20105;-55
2022/10/06 10:14:46;;;;;;;14.27;7.03;;;30.70;88.60;;;;;;5068964;28;20047;-52
2022/10/06 10:17:21;;;;;;;9.10;6.80;;;31.20;86.90;;;;;;5065312;28;20505;-52
2022/10/06 10:19:56;;;;;;;11.25;6.20;;;30.60;86.00;;;;;;5063469;28;20023;-58
2022/10/06 10:22:38;;;;;;;8.50;6.13;;;29.20;86.00;;;;;;5063832;28;20081;-54
2022/10/06 10:25:25;;;;;;;11.80;6.38;;;29.30;87.10;;;;;;5068792;28;20051;-53
2022/10/06 10:28:04;;;;;;;8.93;6.75;;;29.70;87.90;;;;;;5070547;28;20032;-55
2022/10/06 10:30:45;;;;;;;8.98;6.05;;;29.10;86.80;;;;;;5068454;28;20112;-54
2022/10/06 10:33:22;;;;;;;6.90;4.78;;;29.60;87.30;;;;;;5066653;28;20071;-54
2022/10/06 10:35:51;;;;;;;10.32;5.15;;;28.60;84.60;;;;;;5070929;28;20021;-52
2022/10/06 10:38:23;;;;;;;13.93;6.38;;;28.80;85.80;;;;;;5069789;28;20036;-53
2022/10/06 10:40:50;;;;;;;;;;;29.50;85.60;;;;;;5070413;28;20036;-54
2022/10/06 10:43:33;;;;;;;8.18;4.68;;;29.20;85.50;;;;;;5070171;28;19916;-52
2022/10/06 10:46:51;;;;;;;9.35;4.82;;;29.50;84.00;;;;;;5030452;28;20045;-53
2022/10/06 10:49:28;;;;;;;7.15;4.20;;;28.60;84.70;;;;;;5028152;28;20044;-53
2022/10/06 10:52:08;;;;;;;5.78;4.45;;;28.90;84.20;;;;;;5028688;28;20033;-54
2022/10/06 10:54:45;;;;;;;9.82;4.47;;;29.10;84.90;;;;;;5027828;28;20037;-53
2022/10/06 10:57:20;;;;;;;8.18;4.30;;;28.40;84.90;;;;;;5028571;28;20055;-53
2022/10/06 10:59:59;;;;;;;7.00;4.00;;;28.80;86.20;;;;;;5027651;28;20064;-53
2022/10/06 11:02:26;;;;;;;8.88;3.92;;;29.30;85.30;;;;;;5025939;28;20112;-54
2022/10/06 11:05:25;;;;;;;6.45;3.17;;;29.60;85.00;;;;;;5028435;28;20164;-53
2022/10/06 11:08:03;;;;;;;8.00;3.42;;;29.20;83.90;;;;;;4978935;28;20060;-53
2022/10/06 11:10:48;;;;;;;9.50;4.05;;;29.20;83.50;;;;;;5005496;28;20528;-54
2022/10/06 11:13:21;;;;;;;7.78;3.25;;;29.70;84.50;;;;;;5008717;28;20069;-53
2022/10/06 11:15:52;;;;;;;8.95;3.30;;;30.00;83.30;;;;;;4973257;28;20093;-54
2022/10/06 11:18:47;;;;;;;4.38;2.90;;;30.20;83.40;;;;;;5011643;28;20065;-54
2022/10/06 11:21:31;;;;;;;4.72;3.03;;;28.70;83.20;;;;;;4994237;28;20097;-53
2022/10/06 11:24:11;;;;;;;3.85;2.90;;;28.00;83.00;;;;;;5012481;28;20049;-54
2022/10/06 11:26:56;;;;;;;9.07;3.20;;;;;;;;;;5028449;28;20045;-53
2022/10/06 11:29:43;;;;;;;8.20;2.90;;;28.10;84.60;;;;;;5029585;28;20041;-53
2022/10/06 11:32:12;;;;;;;6.25;3.20;;;28.20;84.70;;;;;;5029817;28;20534;-54
2022/10/06 11:34:39;;;;;;;4.75;2.60;;;27.90;84.40;;;;;;5026970;28;20030;-53
2022/10/06 11:37:23;;;;;;;5.53;2.97;;;28.00;84.50;;;;;;5032150;28;20025;-55
2022/10/06 11:40:23;;;;;;;9.98;3.58;;;28.20;84.90;;;;;;5031202;28;20037;-53
2022/10/06 11:43:16;;;;;;;25.00;17.48;;;27.70;85.00;;;;;;5029274;28;20595;-54
2022/10/06 11:45:58;;;;;;;4.13;2.90;;;28.30;84.70;;;;;;5058875;28;20045;-55
2022/10/06 11:48:30;;;;;;;7.63;3.50;;;28.50;83.20;;;;;;5027647;28;20396;-55
2022/10/06 11:51:16;;;;;;;5.40;3.17;;;28.80;84.20;;;;;;5010621;28;20071;-53
2022/10/06 11:53:43;;;;;;;6.38;3.20;;;29.20;83.30;;;;;;5000558;28;20057;-53
2022/10/06 11:56:18;;;;;;;5.78;3.03;;;29.20;84.60;;;;;;4979815;28;20045;-54
2022/10/06 11:58:55;;;;;;;4.50;2.67;;;28.90;84.00;;;;;;4976449;28;20049;-53
2022/10/06 12:01:29;;;;;;;4.22;2.55;;;28.10;83.30;;;;;;5006154;28;20026;-54
2022/10/06 12:04:08;;;;;;;8.13;2.88;;;;;;;;;;5004746;28;20046;-53
2022/10/06 12:06:43;;;;;;;3.67;2.60;;;;;;;;;;5007834;28;20034;-53
2022/10/06 12:09:29;;;;;;;5.00;2.95;;;;;;;;;;5001448;28;20085;-53
2022/10/06 12:12:05;;;;;;;10.32;3.80;;;28.30;99.90;;;;;;5009424;28;20087;-53
2022/10/06 12:14:44;;;;;;;4.97;2.85;;;28.40;84.10;;;;;;4973705;28;20062;-52
2022/10/06 12:17:26;;;;;;;3.97;2.85;;;27.80;83.00;;;;;;5006120;28;20041;-53
2022/10/06 12:20:17;;;;;;;6.55;2.83;;;27.70;83.60;;;;;;5052331;28;21535;-51
2022/10/06 12:22:59;;;;;;;4.28;2.70;;;27.50;83.20;;;;;;5071287;28;20041;-51
2022/10/06 12:25:26;;;;;;;;;;;;;;;;;;5071757;28;20032;-50
2022/10/06 12:27:52;;;;;;;4.53;2.90;;;;;;;;;;5070582;28;19908;-50
2022/10/06 12:30:32;;;;;;;5.50;3.03;;;27.90;99.90;;;;;;5073634;28;20048;-52
2022/10/06 12:32:59;;;;;;;6.63;2.50;;;;;;;;;;5072035;28;20024;-52
2022/10/06 12:35:59;;;;;;;6.32;3.70;;;27.00;95.90;;;;;;5070967;28;20039;-53
2022/10/06 12:38:37;;;;;;;4.63;3.15;;;27.30;96.70;;;;;;5072531;28;20099;-55
2022/10/06 12:41:08;;;;;;;5.75;4.30;;;27.60;96.40;;;;;;5067666;28;20052;-52
2022/10/06 12:43:48;;;;;;;6.63;3.37;;;27.90;96.90;;;;;;5032817;28;20102;-52
2022/10/06 12:46:35;;;;;;;4.93;3.50;;;27.60;97.20;;;;;;5073052;28;20711;-52
2022/10/06 12:49:25;;;;;;;4.70;2.90;;;28.00;97.70;;;;;;5064094;28;20036;-52
2022/10/06 12:51:52;;;;;;;8.90;4.43;;;;;;;;;;5070564;28;20032;-52
2022/10/06 12:54:32;;;;;;;4.65;2.92;;;28.00;99.90;;;;;;5072719;28;20198;-52
2022/10/06 12:57:00;;;;;;;7.53;3.15;;;28.00;83.50;;;;;;5069292;28;20028;-52
2022/10/06 12:59:32;;;;;;;4.35;2.95;;;28.10;83.60;;;;;;5073027;28;20024;-52
2022/10/06 13:01:58;;;;;;;;;;;28.40;81.50;;;;;;5068554;28;20040;-51
2022/10/06 13:04:34;;;;;;;6.88;3.70;;;28.40;83.20;;;;;;5070076;28;20360;-53
2022/10/06 13:07:17;;;;;;;8.52;4.32;;;28.40;84.00;;;;;;5071333;28;20017;-52
2022/10/06 13:09:44;;;;;;;10.48;7.80;;;28.00;84.20;;;;;;5072300;28;20078;-52
2022/10/06 13:12:31;;;;;;;170.20;145.82;;;28.00;84.60;;;;;;5070196;28;20468;-52
2022/10/06 13:15:18;;;;;;;6.20;5.10;;;28.30;84.70;;;;;;5067327;28;20507;-52
2022/10/06 13:17:51;;;;;;;5.93;3.83;;;28.30;81.10;;;;;;5069962;28;20480;-52
2022/10/06 13:20:26;;;;;;;6.88;4.25;;;28.40;82.30;;;;;;5072549;28;20040;-52
2022/10/06 13:23:01;;;;;;;7.28;5.53;;;28.10;83.80;;;;;;5072052;28;20064;-52
2022/10/06 13:25:56;;;;;;;7.57;4.53;;;27.60;83.80;;;;;;5067605;28;20055;-52